Time;durP1;ratioP1;P1;durP2;ratioP2;P2;SDS_P1;SDS_P2;PMS_P1;PMS_P2;Temp;Humidity;BMP_temperature;BMP_pressure;BME280_temperature;BME280_humidity;BME280_pressure;Samples;Min_cycle;Max_cycle;Signal;HPM_P1;HPM_P2
2023/01/12 00:00:04;;;;;;;18.02;3.70;;;;;;;10.31;100.00;98517.34;4996191;28;20116;-87
2023/01/12 00:02:40;;;;;;;24.70;3.80;;;;;;;10.27;100.00;98530.09;4998865;28;20093;-88
2023/01/12 00:05:08;;;;;;;24.02;5.13;;;;;;;10.30;100.00;98534.19;5011887;28;20034;-88
2023/01/12 00:07:35;;;;;;;25.40;4.00;;;;;;;10.30;100.00;98539.47;5000795;28;20034;-87
2023/01/12 00:10:04;;;;;;;26.52;3.60;;;;;;;10.25;100.00;98545.34;5010256;28;20099;-88
2023/01/12 00:12:34;;;;;;;20.40;3.58;;;;;;;10.28;100.00;98542.31;4995573;28;20044;-88
2023/01/12 00:15:04;;;;;;;26.90;4.40;;;;;;;10.24;100.00;98551.59;5043704;28;20139;-86
2023/01/12 00:17:32;;;;;;;28.67;4.28;;;;;;;10.21;100.00;98540.63;5039854;28;20044;-88
2023/01/12 00:20:01;;;;;;;18.38;3.80;;;;;;;10.23;100.00;98549.97;5025883;28;20430;-87
2023/01/12 00:22:29;;;;;;;22.10;3.80;;;;;;;10.21;100.00;98553.81;5050001;28;20033;-88
2023/01/12 00:24:57;;;;;;;23.63;3.60;;;;;;;10.20;100.00;98555.63;5033604;28;20065;-88
2023/01/12 00:27:25;;;;;;;29.85;5.15;;;;;;;10.13;100.00;98544.22;5037916;28;20037;-87
2023/01/12 00:29:53;;;;;;;24.05;3.97;;;;;;;10.17;100.00;98548.09;5014853;28;20481;-87
2023/01/12 00:32:21;;;;;;;27.42;4.60;;;;;;;10.15;100.00;98555.38;5019628;28;20130;-87
2023/01/12 00:34:50;;;;;;;26.88;3.60;;;;;;;10.17;100.00;98574.50;5044781;28;20048;-87
2023/01/12 00:37:18;;;;;;;27.83;5.07;;;;;;;10.10;100.00;98560.41;5031330;28;20033;-87
2023/01/12 00:39:46;;;;;;;22.42;4.13;;;;;;;10.12;100.00;98564.50;5044106;28;20060;-87
2023/01/12 00:45:20;;;;;;;22.30;3.10;;;;;;;10.08;100.00;98571.16;5033222;28;20037;-88
2023/01/12 00:47:48;;;;;;;17.13;3.53;;;;;;;10.07;100.00;98568.69;5023551;28;20481;-87
2023/01/12 00:50:17;;;;;;;28.20;4.88;;;;;;;10.10;100.00;98581.50;5033158;28;20116;-87
2023/01/12 00:52:45;;;;;;;32.88;4.03;;;;;;;10.09;100.00;98574.59;4991967;28;20030;-87
2023/01/12 00:55:13;;;;;;;24.90;3.72;;;;;;;10.05;100.00;98569.72;5015352;28;20032;-83
2023/01/12 00:57:41;;;;;;;19.98;3.03;;;;;;;10.03;100.00;98570.91;5024202;28;20033;-83
2023/01/12 01:00:09;;;;;;;29.30;3.33;;;;;;;10.03;100.00;98566.44;5039434;28;20025;-87
2023/01/12 01:02:37;;;;;;;21.42;4.35;;;;;;;10.02;100.00;98583.28;4998265;28;20032;-87
2023/01/12 01:05:07;;;;;;;27.98;4.22;;;;;;;10.03;100.00;98576.97;5008622;28;20029;-87
2023/01/12 01:07:38;;;;;;;28.08;3.97;;;;;;;10.03;100.00;98568.28;5027935;28;20025;-87
2023/01/12 01:10:07;;;;;;;28.70;3.95;;;;;;;10.02;100.00;98558.69;5005262;28;20060;-88
2023/01/12 01:12:35;;;;;;;30.88;3.92;;;;;;;10.00;100.00;98564.16;5036984;28;20480;-88
2023/01/12 01:15:05;;;;;;;20.88;3.83;;;;;;;10.00;100.00;98571.28;5040455;28;20057;-88
2023/01/12 01:17:35;;;;;;;28.45;4.10;;;;;;;9.99;100.00;98569.63;5028050;28;20032;-88
2023/01/12 01:20:04;;;;;;;22.08;3.42;;;;;;;9.98;100.00;98568.84;5011380;28;20233;-88
2023/01/12 01:22:32;;;;;;;21.80;3.40;;;;;;;9.95;100.00;98571.03;5016943;28;20496;-87
2023/01/12 01:25:02;;;;;;;19.20;2.80;;;;;;;9.95;100.00;98571.03;5029180;28;20024;-87
2023/01/12 01:27:32;;;;;;;21.95;3.05;;;;;;;9.93;100.00;98581.75;5040905;28;20024;-87
2023/01/12 01:30:01;;;;;;;19.98;2.60;;;;;;;9.93;100.00;98590.50;4999580;28;20033;-87
2023/01/12 01:32:29;;;;;;;22.65;2.80;;;;;;;9.91;100.00;98579.31;5043485;28;20376;-87
2023/01/12 01:34:56;;;;;;;14.30;1.90;;;;;;;9.91;100.00;98581.13;5013742;28;20110;-87
2023/01/12 01:37:24;;;;;;;13.65;2.17;;;;;;;9.87;100.00;98564.03;5007437;28;20029;-87
2023/01/12 01:39:55;;;;;;;13.18;2.03;;;;;;;9.86;100.00;98586.16;5015786;28;20028;-88
2023/01/12 01:42:27;;;;;;;18.60;2.47;;;;;;;9.84;100.00;98593.44;5026369;28;20373;-87
2023/01/12 01:44:58;;;;;;;11.48;1.73;;;;;;;9.85;100.00;98585.34;5013965;28;20037;-88
2023/01/12 01:47:36;;;;;;;15.98;1.63;;;;;;;9.83;100.00;98574.13;5021390;28;20038;-88
2023/01/12 01:50:16;;;;;;;10.73;1.73;;;;;;;9.82;100.00;98585.72;4998420;28;20028;-88
2023/01/12 01:52:53;;;;;;;16.80;2.08;;;;;;;9.83;100.00;98591.78;5030466;28;20033;-88
2023/01/12 01:55:29;;;;;;;14.10;2.10;;;;;;;9.85;100.00;98589.78;5015123;28;20041;-87
2023/01/12 01:58:01;;;;;;;18.23;3.28;;;;;;;9.83;100.00;98586.50;4999009;28;20029;-88
2023/01/12 02:00:30;;;;;;;21.17;3.00;;;;;;;9.82;100.00;98598.91;5017041;28;20120;-87
2023/01/12 02:03:04;;;;;;;23.25;4.05;;;;;;;9.83;100.00;98576.78;5007617;28;20087;-89
2023/01/12 02:05:44;;;;;;;21.98;3.85;;;;;;;9.84;100.00;98598.72;5033758;28;20033;-88
2023/01/12 02:08:25;;;;;;;29.80;3.40;;;;;;;9.83;100.00;98597.88;5027218;28;20025;-84
2023/01/12 02:10:58;;;;;;;23.13;3.08;;;;;;;9.84;100.00;98596.06;4991388;28;20033;-84
2023/01/12 02:16:24;;;;;;;20.85;4.22;;;;;;;9.78;100.00;98601.09;5032776;28;22149;-88
2023/01/12 02:19:06;;;;;;;22.95;3.15;;;;;;;9.81;100.00;98602.53;5023442;28;20035;-87
2023/01/12 02:21:44;;;;;;;19.95;2.63;;;;;;;9.79;100.00;98589.50;5006031;28;20047;-86
2023/01/12 02:24:36;;;;;;;22.20;4.68;;;;;;;9.78;100.00;98597.63;5028380;28;20037;-89
2023/01/12 02:27:21;;;;;;;20.95;3.83;;;;;;;9.75;100.00;98606.72;5003963;28;20044;-87
2023/01/12 02:29:56;;;;;;;27.77;4.20;;;;;;;9.75;100.00;98598.00;5035555;28;20037;-87
2023/01/12 02:32:44;;;;;;;26.10;3.88;;;;;;;9.79;100.00;98601.91;5006540;28;20041;-87
2023/01/12 02:35:33;;;;;;;24.95;3.38;;;;;;;9.78;100.00;98614.28;5035780;28;20048;-87
2023/01/12 02:38:11;;;;;;;23.85;3.72;;;;;;;9.83;100.00;98604.97;4993077;28;20032;-88
2023/01/12 02:41:00;;;;;;;32.65;5.20;;;;;;;9.83;100.00;98597.06;5036813;28;20045;-87
2023/01/12 02:43:32;;;;;;;31.63;5.25;;;;;;;9.84;100.00;98596.06;5036508;28;20033;-87
2023/01/12 02:46:21;;;;;;;34.88;5.10;;;;;;;9.85;100.00;98589.78;5029125;28;20502;-88
2023/01/12 02:48:56;;;;;;;24.15;3.33;;;;;;;9.87;100.00;98587.78;5007439;28;20036;-84
2023/01/12 02:51:49;;;;;;;24.88;4.18;;;;;;;9.84;100.00;98594.25;5037472;28;20102;-83
2023/01/12 02:54:21;;;;;;;22.38;3.40;;;;;;;9.84;100.00;98604.00;5028237;28;20422;-87
2023/01/12 02:56:53;;;;;;;23.73;3.33;;;;;;;9.84;100.00;98606.63;5044053;28;20038;-88
2023/01/12 02:59:31;;;;;;;32.40;4.72;;;;;;;9.86;100.00;98605.44;4992707;28;20061;-87
2023/01/12 03:02:08;;;;;;;30.08;3.67;;;;;;;9.86;100.00;98604.63;5066538;28;20476;-87
2023/01/12 03:04:40;;;;;;;21.98;3.50;;;;;;;9.85;100.00;98598.53;5032118;28;20044;-87
2023/01/12 03:07:26;;;;;;;21.75;3.35;;;;;;;9.91;100.00;98608.34;5048498;28;20059;-87
2023/01/12 03:10:05;;;;;;;19.15;3.25;;;;;;;9.89;100.00;98593.72;5004567;28;20037;-88
2023/01/12 03:12:37;;;;;;;22.17;3.03;;;;;;;9.88;100.00;98599.97;5041426;28;20049;-87
2023/01/12 03:15:09;;;;;;;17.27;2.72;;;;;;;9.90;100.00;98597.97;5040496;28;20452;-87
2023/01/12 03:17:53;;;;;;;18.55;3.60;;;;;;;9.91;100.00;98597.78;5035497;28;20033;-87
2023/01/12 03:20:25;;;;;;;25.10;3.75;;;;;;;9.87;100.00;98593.88;5068232;28;20041;-86
2023/01/12 03:22:59;;;;;;;21.83;3.45;;;;;;;9.91;100.00;98586.41;5026889;28;20029;-88
2023/01/12 03:25:32;;;;;;;23.92;4.80;;;;;;;9.89;100.00;98578.66;5027339;28;20040;-88
2023/01/12 03:28:05;;;;;;;26.52;3.50;;;;;;;9.91;100.00;98575.84;5035490;28;20043;-88
2023/01/12 03:31:07;;;;;;;23.52;3.22;;;;;;;9.95;100.00;98550.72;5032872;28;20031;-88
2023/01/12 03:33:42;;;;;;;27.80;4.32;;;;;;;9.97;100.00;98563.75;5033163;28;20029;-88
2023/01/12 03:36:57;;;;;;;23.00;4.20;;;;;;;9.97;100.00;98564.53;5083710;28;20025;-88
2023/01/12 03:40:10;;;;;;;20.73;3.42;;;;;;;9.92;100.00;98553.75;5027116;28;20497;-84
2023/01/12 03:42:48;;;;;;;17.23;3.33;;;;;;;9.91;100.00;98558.19;5047070;28;20037;-84
2023/01/12 03:45:36;;;;;;;26.73;4.20;;;;;;;9.96;100.00;98573.47;5047470;28;20060;-87
2023/01/12 03:48:15;;;;;;;20.13;3.58;;;;;;;9.96;100.00;98564.72;5020983;28;20392;-87
2023/01/12 03:50:52;;;;;;;19.08;3.03;;;;;;;9.97;100.00;98553.19;5031989;28;20388;-88
2023/01/12 03:53:23;;;;;;;20.67;3.10;;;;;;;9.93;100.00;98553.56;5043484;28;20039;-87
2023/01/12 03:55:56;;;;;;;21.65;2.90;;;;;;;9.95;100.00;98556.00;5055394;28;20158;-87
2023/01/12 03:58:24;;;;;;;18.40;3.20;;;;;;;9.87;100.00;98549.03;5065270;28;20043;-87
2023/01/12 04:00:53;;;;;;;18.88;3.47;;;;;;;9.82;100.00;98548.75;5042716;28;20029;-88
2023/01/12 04:03:23;;;;;;;17.58;2.60;;;;;;;9.76;100.00;98544.22;5033643;28;20039;-87
2023/01/12 04:05:50;;;;;;;11.90;1.67;;;;;;;9.74;100.00;98548.88;5017833;28;20033;-88
2023/01/12 04:08:19;;;;;;;14.20;1.92;;;;;;;9.69;100.00;98554.72;5044972;28;20557;-87
2023/01/12 04:10:47;;;;;;;20.13;2.15;;;;;;;9.66;100.00;98542.72;5068981;28;20036;-87
2023/01/12 04:13:15;;;;;;;11.43;3.03;;;;;;;9.65;100.00;98554.25;5017324;28;20036;-87
2023/01/12 04:15:47;;;;;;;15.50;2.20;;;;;;;9.65;100.00;98548.19;5035321;28;20478;-87
2023/01/12 04:18:17;;;;;;;12.73;1.90;;;;;;;9.62;100.00;98541.44;5049521;28;20036;-87
2023/01/12 04:20:46;;;;;;;13.18;1.98;;;;;;;9.63;100.00;98548.38;5045293;28;20045;-87
2023/01/12 04:23:13;;;;;;;13.00;2.20;;;;;;;9.59;100.00;98543.66;5050045;28;20097;-87
2023/01/12 04:25:43;;;;;;;14.32;1.60;;;;;;;9.62;100.00;98553.81;5045305;28;20042;-88
2023/01/12 04:28:15;;;;;;;11.43;2.15;;;;;;;9.59;100.00;98544.44;5053222;28;20039;-87
2023/01/12 04:30:44;;;;;;;13.95;2.45;;;;;;;9.63;100.00;98542.25;5045240;28;20067;-87
2023/01/12 04:33:12;;;;;;;15.93;2.25;;;;;;;9.58;100.00;98516.44;5029876;28;20028;-87
2023/01/12 04:35:40;;;;;;;18.92;2.38;;;;;;;9.60;100.00;98527.63;5019023;28;20037;-88
2023/01/12 04:38:08;;;;;;;14.45;2.50;;;;;;;9.59;100.00;98519.91;5021470;28;20046;-88
2023/01/12 04:40:36;;;;;;;14.25;2.17;;;;;;;9.61;100.00;98516.06;5016241;28;20032;-87
2023/01/12 04:43:06;;;;;;;19.90;2.70;;;;;;;9.59;100.00;98509.34;5060405;28;20029;-88
2023/01/12 04:45:39;;;;;;;16.10;3.60;;;;;;;9.61;100.00;98516.06;5020111;28;20032;-88
2023/01/12 04:48:12;;;;;;;22.40;3.03;;;;;;;9.59;100.00;98506.72;5049645;28;20024;-87
2023/01/12 04:50:43;;;;;;;19.42;3.38;;;;;;;9.56;100.00;98499.97;5035232;28;20036;-87
2023/01/12 04:53:12;;;;;;;20.08;3.58;;;;;;;9.57;100.00;98512.19;5030915;28;20087;-88
2023/01/12 04:55:42;;;;;;;27.13;3.38;;;;;;;9.58;100.00;98507.69;5029440;28;22113;-87
2023/01/12 04:58:11;;;;;;;21.77;3.30;;;;;;;9.58;100.00;98499.78;5022797;28;20083;-87
2023/01/12 05:00:39;;;;;;;29.38;4.00;;;;;;;9.56;100.00;98494.69;5059685;28;20489;-86
2023/01/12 05:03:10;;;;;;;26.58;3.47;;;;;;;9.60;100.00;98500.44;5053216;28;20040;-88
2023/01/12 05:05:38;;;;;;;19.25;2.80;;;;;;;9.60;100.00;98498.63;5072553;28;20028;-87
2023/01/12 05:10:57;;;;;;;25.20;4.00;;;;;;;9.62;100.00;98479.97;5032164;28;20097;-87
2023/01/12 05:13:30;;;;;;;23.45;3.20;;;;;;;9.62;100.00;98479.97;5051073;28;20052;-87
2023/01/12 05:16:15;;;;;;;24.52;3.28;;;;;;;9.63;100.00;98481.59;5029882;28;20115;-87
2023/01/12 05:18:44;;;;;;;25.63;4.05;;;;;;;9.62;100.00;98472.06;5044046;28;20028;-87
2023/01/12 05:21:16;;;;;;;18.75;2.97;;;;;;;9.66;100.00;98474.13;5037469;28;20025;-86
2023/01/12 05:23:45;;;;;;;22.13;2.97;;;;;;;9.64;100.00;98460.31;5016645;28;20132;-87
2023/01/12 05:26:15;;;;;;;20.85;2.83;;;;;;;9.64;100.00;98465.56;5054870;28;20648;-86
2023/01/12 05:28:48;;;;;;;20.52;3.25;;;;;;;9.61;100.00;98463.31;5073909;28;20059;-87
2023/01/12 05:31:18;;;;;;;13.32;2.35;;;;;;;9.62;100.00;98462.31;5024395;28;20452;-87
2023/01/12 05:33:48;;;;;;;15.18;2.20;;;;;;;9.64;100.00;98460.31;5059654;28;20036;-87
2023/01/12 05:36:19;;;;;;;22.33;2.70;;;;;;;9.62;100.00;98458.88;5024514;28;20575;-87
2023/01/12 05:38:47;;;;;;;15.38;2.30;;;;;;;9.64;100.00;98451.56;5049677;28;20489;-87
2023/01/12 05:41:14;;;;;;;17.25;2.33;;;;;;;9.64;100.00;98446.28;5048240;28;20423;-87
2023/01/12 05:43:49;;;;;;;20.98;2.53;;;;;;;9.63;100.00;98447.31;5050941;28;20090;-87
2023/01/12 05:46:30;;;;;;;13.57;1.95;;;;;;;9.65;100.00;98442.66;5033649;28;20123;-87
2023/01/12 05:48:58;;;;;;;18.95;1.90;;;;;;;9.64;100.00;98447.13;5059771;28;20070;-87
2023/01/12 05:51:29;;;;;;;16.73;2.33;;;;;;;9.65;100.00;98434.75;5036512;28;20132;-87
2023/01/12 05:53:57;;;;;;;12.75;2.97;;;;;;;9.64;100.00;98427.81;5022503;28;20550;-87
2023/01/12 05:56:27;;;;;;;15.25;2.75;;;;;;;9.64;100.00;98423.38;5030127;28;20036;-87
2023/01/12 05:58:57;;;;;;;13.70;2.20;;;;;;;9.62;100.00;98420.09;5049380;28;20484;-88
2023/01/12 06:01:25;;;;;;;18.15;2.75;;;;;;;9.57;100.00;98411.13;5051621;28;20044;-87
2023/01/12 06:03:54;;;;;;;18.30;2.67;;;;;;;9.58;100.00;98405.66;5047042;28;20037;-87
2023/01/12 06:06:24;;;;;;;11.82;2.72;;;;;;;9.61;100.00;98407.09;5028607;28;20036;-87
2023/01/12 06:08:54;;;;;;;15.40;2.13;;;;;;;9.59;100.00;98399.38;5025578;28;20032;-87
2023/01/12 06:14:10;;;;;;;15.23;2.08;;;;;;;9.63;100.00;98390.09;5068644;28;20083;-88
2023/01/12 06:16:40;;;;;;;18.35;2.80;;;;;;;9.64;100.00;98388.25;5047009;28;20071;-87
2023/01/12 06:19:10;;;;;;;18.25;2.25;;;;;;;9.65;100.00;98389.91;5043717;28;20033;-87
2023/01/12 06:21:38;;;;;;;12.43;1.75;;;;;;;9.62;100.00;98385.81;5034397;28;20107;-88
2023/01/12 06:24:07;;;;;;;15.95;2.05;;;;;;;9.65;100.00;98382.78;5060237;28;20035;-87
2023/01/12 06:26:35;;;;;;;16.52;2.15;;;;;;;9.62;100.00;98374.47;5069832;28;20380;-87
2023/01/12 06:29:05;;;;;;;18.90;2.88;;;;;;;9.61;100.00;98363.09;5032844;28;20045;-88
2023/01/12 06:31:35;;;;;;;15.63;2.42;;;;;;;9.63;100.00;98363.72;5043353;28;20032;-87
2023/01/12 06:34:03;;;;;;;15.82;2.35;;;;;;;9.62;100.00;98374.47;5042353;28;20032;-83
2023/01/12 06:36:31;;;;;;;15.00;2.47;;;;;;;9.66;100.00;98373.06;5029875;28;20028;-83
2023/01/12 06:38:59;;;;;;;11.88;1.67;;;;;;;9.65;100.00;98366.97;5061003;28;20029;-88
2023/01/12 06:44:14;;;;;;;;;;;;;;;9.61;100.00;98367.53;5056944;28;20067;-87
2023/01/12 06:46:47;;;;;;;11.35;1.95;;;;;;;9.62;100.00;98366.53;5041423;28;19915;-88
2023/01/12 06:49:17;;;;;;;13.10;1.90;;;;;;;9.63;100.00;98362.88;5057081;28;20025;-87
2023/01/12 06:51:50;;;;;;;12.90;1.92;;;;;;;9.58;100.00;98357.34;5042997;28;20120;-86
2023/01/12 06:54:21;;;;;;;7.82;1.58;;;;;;;9.54;100.00;98357.75;5032241;28;20569;-84
2023/01/12 06:56:51;;;;;;;14.55;2.00;;;;;;;9.52;100.00;98362.38;5040322;28;20056;-84
2023/01/12 06:59:21;;;;;;;10.57;1.83;;;;;;;9.53;100.00;98352.66;5038593;28;20044;-87
2023/01/12 07:01:50;;;;;;;7.13;1.90;;;;;;;9.57;100.00;98355.75;5027006;28;20120;-88
2023/01/12 07:04:18;;;;;;;7.47;0.90;;;;;;;9.54;100.00;98343.72;5044383;28;20404;-89
2023/01/12 07:06:47;;;;;;;12.88;1.67;;;;;;;9.57;100.00;98347.81;5044405;28;20036;-88
2023/01/12 07:09:14;;;;;;;13.40;1.85;;;;;;;9.53;100.00;98357.94;5055836;28;20029;-88
2023/01/12 07:11:42;;;;;;;8.05;1.55;;;;;;;9.59;100.00;98364.28;5063912;28;20033;-88
2023/01/12 07:14:10;;;;;;;5.22;1.23;;;;;;;9.55;100.00;98350.66;5022010;28;20048;-85
2023/01/12 07:16:39;;;;;;;13.82;2.20;;;;;;;9.60;100.00;98361.47;5025586;28;20025;-85
2023/01/12 07:19:06;;;;;;;11.52;2.38;;;;;;;9.59;100.00;98373.00;5041823;28;20109;-85
2023/01/12 07:21:34;;;;;;;21.85;3.95;;;;;;;9.60;100.00;98373.81;5010354;28;20037;-85
2023/01/12 07:24:02;;;;;;;23.30;3.90;;;;;;;9.54;100.00;98370.09;5018406;28;20029;-84
2023/01/12 07:26:31;;;;;;;17.17;3.50;;;;;;;9.55;100.00;98369.13;5015947;28;20048;-85
2023/01/12 07:28:59;;;;;;;31.15;5.63;;;;;;;9.58;100.00;98373.19;5035429;28;20032;-88
2023/01/12 07:31:27;;;;;;;22.27;3.63;;;;;;;9.59;100.00;98359.00;4996093;28;20080;-88
2023/01/12 07:33:54;;;;;;;21.92;4.57;;;;;;;9.61;100.00;98386.00;5011025;28;20044;-88
2023/01/12 07:36:24;;;;;;;24.23;4.40;;;;;;;9.62;100.00;98369.97;5037990;28;20481;-89
2023/01/12 07:38:52;;;;;;;20.30;4.10;;;;;;;9.58;100.00;98374.00;5014866;28;20055;-84
2023/01/12 07:44:09;;;;;;;24.92;4.53;;;;;;;9.53;100.00;98364.03;4948188;28;20033;-89
2023/01/12 07:46:37;;;;;;;27.98;5.38;;;;;;;9.46;100.00;98359.72;5014245;28;20029;-88
2023/01/12 07:49:06;;;;;;;27.88;5.70;;;;;;;9.47;100.00;98356.88;5013777;28;20027;-85
2023/01/12 07:51:34;;;;;;;36.60;5.95;;;;;;;9.40;100.00;98355.97;5029957;28;20333;-85
2023/01/12 07:54:02;;;;;;;31.23;6.63;;;;;;;9.41;100.00;98355.00;5013297;28;20037;-86
2023/01/12 07:56:29;;;;;;;42.03;6.03;;;;;;;9.35;100.00;98351.28;4999047;28;20065;-85
2023/01/12 07:58:58;;;;;;;27.80;5.45;;;;;;;9.33;100.00;98350.66;5015775;28;20036;-89
2023/01/12 08:01:26;;;;;;;27.27;5.90;;;;;;;9.28;100.00;98355.69;5012540;28;20131;-88
2023/01/12 08:03:56;;;;;;;22.92;4.82;;;;;;;9.28;100.00;98329.31;5018801;28;20052;-87
2023/01/12 08:06:25;;;;;;;19.95;4.28;;;;;;;9.27;100.00;98344.31;5026626;28;20041;-88
2023/01/12 08:08:53;;;;;;;25.75;4.15;;;;;;;9.25;100.00;98346.31;5014701;28;20083;-88
2023/01/12 08:11:21;;;;;;;22.73;5.70;;;;;;;9.25;100.00;98356.06;5032944;28;20056;-88
2023/01/12 08:13:54;;;;;;;28.27;5.28;;;;;;;9.22;100.00;98345.88;5015351;28;20047;-88
2023/01/12 08:16:31;;;;;;;25.80;5.13;;;;;;;9.22;100.00;98359.06;5005989;28;20492;-87
2023/01/12 08:19:17;;;;;;;29.63;5.00;;;;;;;9.15;100.00;98348.44;4987339;28;20086;-85
2023/01/12 08:21:51;;;;;;;29.80;6.60;;;;;;;9.17;100.00;98347.25;5023157;28;20036;-84
2023/01/12 08:24:24;;;;;;;20.92;4.68;;;;;;;9.14;100.00;98349.47;5041644;28;20030;-87
2023/01/12 08:26:56;;;;;;;38.55;5.78;;;;;;;9.08;100.00;98340.47;5026146;28;20037;-88
2023/01/12 08:29:32;;;;;;;35.03;5.93;;;;;;;9.03;100.00;98335.75;5011463;28;20040;-85
2023/01/12 08:32:03;;;;;;;41.97;6.07;;;;;;;9.02;100.00;98344.69;5024367;28;20037;-83
2023/01/12 08:34:35;;;;;;;28.98;6.13;;;;;;;9.00;100.00;98336.13;5007828;28;20037;-89
2023/01/12 08:37:08;;;;;;;28.90;5.78;;;;;;;9.00;100.00;98346.66;5024860;28;20046;-88
2023/01/12 08:39:38;;;;;;;39.28;6.28;;;;;;;8.97;100.00;98330.41;4997270;28;20128;-88
2023/01/12 08:42:08;;;;;;;39.30;7.45;;;;;;;8.98;100.00;98339.97;4997432;28;20041;-88
2023/01/12 08:44:38;;;;;;;32.38;7.20;;;;;;;8.96;100.00;98352.50;5017526;28;20064;-88
2023/01/12 08:47:17;;;;;;;35.30;7.03;;;;;;;8.98;100.00;98364.47;5017435;28;20045;-88
2023/01/12 08:49:46;;;;;;;34.40;6.28;;;;;;;8.97;100.00;98354.13;4997972;28;20389;-88
2023/01/12 08:52:15;;;;;;;35.33;6.70;;;;;;;8.99;100.00;98374.03;4995779;28;20067;-88
2023/01/12 08:54:44;;;;;;;37.55;7.25;;;;;;;9.00;100.00;98365.13;5007612;28;20043;-84
2023/01/12 08:57:12;;;;;;;35.58;6.68;;;;;;;9.00;100.00;98338.75;5001527;28;20040;-84
2023/01/12 08:59:41;;;;;;;55.45;8.23;;;;;;;8.99;100.00;98378.47;5002528;28;20037;-84
2023/01/12 09:02:11;;;;;;;49.17;9.10;;;;;;;8.97;100.00;98362.84;4994405;28;20829;-84
2023/01/12 09:04:41;;;;;;;37.70;7.82;;;;;;;8.91;100.00;98366.22;5033480;28;20041;-87
2023/01/12 09:07:12;;;;;;;42.13;5.97;;;;;;;8.85;100.00;98372.25;5052800;28;20083;-87
2023/01/12 09:09:41;;;;;;;39.03;6.70;;;;;;;8.83;100.00;98366.34;5028553;28;20040;-87
2023/01/12 09:12:09;;;;;;;47.67;7.40;;;;;;;8.79;100.00;98382.50;4998517;28;20468;-88
2023/01/12 09:14:39;;;;;;;40.40;6.75;;;;;;;8.75;100.00;98380.44;5047293;28;20097;-87
2023/01/12 09:17:08;;;;;;;45.30;8.45;;;;;;;8.72;100.00;98375.53;5059540;28;20041;-87
2023/01/12 09:19:35;;;;;;;33.53;5.60;;;;;;;8.64;100.00;98366.75;5044113;28;20032;-88
2023/01/12 09:22:03;;;;;;;41.25;6.80;;;;;;;8.59;100.00;98391.97;5050070;28;20035;-89
2023/01/12 09:24:31;;;;;;;34.47;6.82;;;;;;;8.50;100.00;98385.97;5018394;28;20043;-87
2023/01/12 09:27:00;;;;;;;38.78;7.20;;;;;;;8.55;100.00;98404.69;5044904;28;20033;-89
2023/01/12 09:29:27;;;;;;;37.75;6.60;;;;;;;8.41;100.00;98395.75;5047555;28;20041;-88
2023/01/12 09:31:57;;;;;;;53.97;8.68;;;;;;;8.37;100.00;98379.53;5063915;28;20063;-88
2023/01/12 09:34:24;;;;;;;48.35;8.52;;;;;;;8.29;100.00;98390.94;5030704;28;20032;-87
2023/01/12 09:36:55;;;;;;;36.00;6.85;;;;;;;8.21;100.00;98388.41;5029556;28;20035;-88
2023/01/12 09:39:27;;;;;;;33.60;5.57;;;;;;;8.18;100.00;98375.59;5047551;28;20119;-86
2023/01/12 09:47:55;;;;;;;32.17;6.50;;;;;;;8.06;100.00;98383.94;5029154;28;20450;-87
2023/01/12 09:50:39;;;;;;;41.20;8.13;;;;;;;8.03;100.00;98394.81;5005043;28;20100;-88
2023/01/12 09:53:27;;;;;;;34.97;5.60;;;;;;;7.99;100.00;98398.81;5012342;28;20030;-87
2023/01/12 09:56:03;;;;;;;41.17;6.50;;;;;;;7.99;100.00;98405.88;5025897;28;20032;-85
2023/01/12 09:58:54;;;;;;;43.60;8.95;;;;;;;8.01;100.00;98396.78;5024577;28;20041;-85
2023/01/12 10:01:24;;;;;;;40.50;6.70;;;;;;;7.98;100.00;98388.47;5052302;28;20075;-88
2023/01/12 10:03:52;;;;;;;33.63;5.40;;;;;;;7.97;100.00;98394.69;5039492;28;20033;-87
2023/01/12 10:06:20;;;;;;;39.85;6.13;;;;;;;7.98;100.00;98397.16;5042676;28;20036;-89
2023/01/12 10:08:56;;;;;;;35.78;6.30;;;;;;;8.01;100.00;98382.84;5035543;28;20040;-84
2023/01/12 10:11:37;;;;;;;40.05;7.63;;;;;;;8.01;100.00;98394.16;5041943;28;20051;-84
2023/01/12 10:14:24;;;;;;;39.80;6.75;;;;;;;7.99;100.00;98398.81;5038701;28;20055;-87
2023/01/12 10:17:01;;;;;;;39.50;6.93;;;;;;;8.03;100.00;98394.81;5056001;28;20033;-87
2023/01/12 10:19:38;;;;;;;42.10;6.38;;;;;;;8.11;100.00;98383.38;5008962;28;20643;-88
2023/01/12 10:22:36;;;;;;;35.35;6.65;;;;;;;8.13;100.00;98378.78;5044263;28;20055;-87
2023/01/12 10:25:15;;;;;;;43.55;7.90;;;;;;;8.14;100.00;98390.09;5044842;28;20040;-85
2023/01/12 10:27:47;;;;;;;45.00;7.70;;;;;;;8.18;100.00;98404.53;5065786;28;20492;-85
2023/01/12 10:30:34;;;;;;;33.78;7.05;;;;;;;8.18;100.00;98405.38;5028572;28;20468;-87
2023/01/12 10:33:21;;;;;;;34.45;6.95;;;;;;;8.15;100.00;98413.63;5059744;28;20033;-88
2023/01/12 10:36:02;;;;;;;28.05;6.07;;;;;;;8.02;100.00;98401.06;5018680;28;20052;-86
2023/01/12 10:38:51;;;;;;;29.00;5.63;;;;;;;7.94;100.00;98415.13;5034871;28;20041;-87
2023/01/12 10:41:22;;;;;;;33.38;6.65;;;;;;;7.96;100.00;98436.00;5057196;28;20044;-87
2023/01/12 10:43:58;;;;;;;19.02;3.58;;;;;;;7.91;100.00;98425.19;5040900;28;20385;-85
2023/01/12 10:46:31;;;;;;;;;;;;;;;7.68;100.00;98455.75;5024171;28;20090;-84
2023/01/12 10:49:18;;;;;;;12.80;2.13;;;;;;;7.32;100.00;98453.66;5040307;28;20006;-86
2023/01/12 10:51:58;;;;;;;20.55;3.65;;;;;;;7.00;100.00;98455.44;5058537;28;20037;-87
2023/01/12 10:54:31;;;;;;;29.83;3.65;;;;;;;6.84;100.00;98465.03;5024138;28;20064;-87
2023/01/12 10:57:00;;;;;;;23.27;4.13;;;;;;;6.74;100.00;98469.66;5050027;28;20029;-86
2023/01/12 10:59:30;;;;;;;42.08;7.35;;;;;;;6.69;100.00;98470.97;5052060;28;20045;-87
2023/01/12 11:02:07;;;;;;;19.55;3.72;;;;;;;6.67;100.00;98449.31;5055795;28;20105;-87
2023/01/12 11:04:48;;;;;;;33.55;4.65;;;;;;;6.75;100.00;98485.25;5030241;28;20043;-83
2023/01/12 11:07:29;;;;;;;17.95;4.28;;;;;;;6.75;100.00;98459.00;5046579;28;20166;-83
2023/01/12 11:10:20;;;;;;;17.30;3.40;;;;;;;6.77;100.00;98457.00;5047437;28;20480;-87
2023/01/12 11:13:05;;;;;;;23.95;4.25;;;;;;;6.80;100.00;98469.78;5065101;28;20563;-86
2023/01/12 11:15:38;;;;;;;21.63;3.47;;;;;;;6.82;100.00;98464.38;5068273;28;20437;-87
2023/01/12 11:18:11;;;;;;;23.88;3.70;;;;;;;6.85;100.00;98463.25;5075630;28;20036;-86
2023/01/12 11:20:52;;;;;;;19.20;3.30;;;;;;;6.84;100.00;98462.41;5066515;28;20072;-84
2023/01/12 11:23:34;;;;;;;20.48;3.80;;;;;;;6.93;100.00;98452.69;5052834;28;20459;-84
2023/01/12 11:26:20;;;;;;;26.10;3.72;;;;;;;6.97;100.00;98463.69;5043225;28;20029;-87
2023/01/12 11:28:52;;;;;;;26.10;4.72;;;;;;;6.99;100.00;98477.47;5060129;28;20427;-87
2023/01/12 11:31:37;;;;;;;35.92;5.53;;;;;;;7.03;100.00;98440.19;5063856;28;20042;-88
2023/01/12 11:34:24;;;;;;;29.52;4.85;;;;;;;7.05;100.00;98440.00;5045746;28;20089;-87
2023/01/12 11:37:03;;;;;;;29.75;5.32;;;;;;;7.02;100.00;98416.72;5046269;28;20033;-87
2023/01/12 11:39:31;;;;;;;27.58;4.85;;;;;;;6.95;100.00;98430.53;5045737;28;20036;-86
2023/01/12 11:45:05;;;;;;;28.20;4.55;;;;;;;6.91;100.00;98417.91;5080628;28;20033;-83
2023/01/12 11:47:41;;;;;;;19.75;3.10;;;;;;;6.90;100.00;98408.38;5070660;28;20028;-84
2023/01/12 11:50:27;;;;;;;27.95;4.47;;;;;;;6.90;100.00;98411.81;5065597;28;20031;-87
2023/01/12 11:52:57;;;;;;;33.17;6.45;;;;;;;6.95;100.00;98430.53;5057729;28;20060;-86
2023/01/12 11:55:53;;;;;;;37.33;6.13;;;;;;;6.99;100.00;98409.97;5038166;28;20032;-86
2023/01/12 11:58:38;;;;;;;30.00;5.30;;;;;;;6.97;100.00;98395.38;5050886;28;20103;-86
2023/01/12 12:01:32;;;;;;;26.85;4.55;;;;;;;6.93;100.00;98406.22;5042917;28;20040;-86
2023/01/12 12:04:22;;;;;;;23.60;4.63;;;;;;;6.97;100.00;98403.25;5071070;28;20486;-87
2023/01/12 12:07:18;;;;;;;26.85;5.32;;;;;;;6.94;100.00;98399.97;5030737;28;20044;-86
2023/01/12 12:10:04;;;;;;;40.78;5.88;;;;;;;6.94;100.00;98417.56;5031496;28;20025;-82
2023/01/12 12:12:47;;;;;;;38.60;5.68;;;;;;;6.93;100.00;98442.16;5066740;28;20110;-83
2023/01/12 12:15:28;;;;;;;26.40;3.90;;;;;;;6.82;100.00;98456.50;5075381;28;20493;-87
2023/01/12 12:18:06;;;;;;;16.15;3.33;;;;;;;6.40;100.00;98445.28;4982497;28;20029;-88